sensor_id;sensor_type;location;lat;lon;timestamp;pressure;altitude;pressure_sealevel;temperature;humidity
42859;BME280;28505;56.970;40.998;2023-07-31T00:01:48;98992.47;;;14.29;100.00
42859;BME280;28505;56.970;40.998;2023-07-31T00:07:11;98992.47;;;14.29;100.00
42859;BME280;28505;56.970;40.998;2023-07-31T00:12:33;98994.03;;;14.30;100.00
42859;BME280;28505;56.970;40.998;2023-07-31T00:17:55;99006.47;;;14.31;100.00
42859;BME280;28505;56.970;40.998;2023-07-31T00:23:17;99002.50;;;14.28;100.00
42859;BME280;28505;56.970;40.998;2023-07-31T00:28:39;98996.97;;;14.25;100.00
42859;BME280;28505;56.970;40.998;2023-07-31T00:34:01;98988.41;;;14.23;100.00
42859;BME280;28505;56.970;40.998;2023-07-31T00:39:23;98989.53;;;14.22;100.00
42859;BME280;28505;56.970;40.998;2023-07-31T00:44:45;98985.91;;;14.18;100.00
42859;BME280;28505;56.970;40.998;2023-07-31T00:50:37;98987.50;;;14.19;100.00
42859;BME280;28505;56.970;40.998;2023-07-31T00:55:59;98986.38;;;14.20;100.00
42859;BME280;28505;56.970;40.998;2023-07-31T01:01:21;98990.44;;;14.14;100.00
42859;BME280;28505;56.970;40.998;2023-07-31T01:07:01;98997.91;;;14.17;100.00
42859;BME280;28505;56.970;40.998;2023-07-31T01:12:27;98989.19;;;14.11;100.00
42859;BME280;28505;56.970;40.998;2023-07-31T01:17:53;98986.75;;;14.06;100.00
42859;BME280;28505;56.970;40.998;2023-07-31T01:34:37;98995.09;;;14.13;100.00
42859;BME280;28505;56.970;40.998;2023-07-31T01:39:59;98995.88;;;14.14;100.00
42859;BME280;28505;56.970;40.998;2023-07-31T01:45:24;98986.50;;;14.11;100.00
42859;BME280;28505;56.970;40.998;2023-07-31T01:50:46;98986.59;;;14.15;100.00
42859;BME280;28505;56.970;40.998;2023-07-31T01:56:09;98984.66;;;14.15;100.00
42859;BME280;28505;56.970;40.998;2023-07-31T02:01:31;98985.25;;;14.21;100.00
42859;BME280;28505;56.970;40.998;2023-07-31T02:06:53;98976.66;;;14.19;100.00
42859;BME280;28505;56.970;40.998;2023-07-31T02:12:15;98982.19;;;14.22;100.00
42859;BME280;28505;56.970;40.998;2023-07-31T02:17:37;98982.75;;;14.28;100.00
42859;BME280;28505;56.970;40.998;2023-07-31T02:23:00;98992.00;;;14.27;100.00
42859;BME280;28505;56.970;40.998;2023-07-31T02:28:23;98987.72;;;14.26;100.00
42859;BME280;28505;56.970;40.998;2023-07-31T02:33:45;98982.31;;;14.26;100.00
42859;BME280;28505;56.970;40.998;2023-07-31T02:39:08;98980.81;;;14.28;100.00
42859;BME280;28505;56.970;40.998;2023-07-31T02:44:30;98974.97;;;14.26;100.00
42859;BME280;28505;56.970;40.998;2023-07-31T02:49:52;98993.16;;;14.26;100.00
42859;BME280;28505;56.970;40.998;2023-07-31T02:55:14;98997.19;;;14.32;100.00
42859;BME280;28505;56.970;40.998;2023-07-31T03:00:42;98996.50;;;14.35;100.00
42859;BME280;28505;56.970;40.998;2023-07-31T03:06:03;99013.22;;;14.37;100.00
42859;BME280;28505;56.970;40.998;2023-07-31T03:11:26;99009.72;;;14.37;100.00
42859;BME280;28505;56.970;40.998;2023-07-31T03:16:48;99005.97;;;14.41;100.00
42859;BME280;28505;56.970;40.998;2023-07-31T03:22:10;98997.06;;;14.41;100.00
42859;BME280;28505;56.970;40.998;2023-07-31T03:27:32;98987.69;;;14.38;100.00
42859;BME280;28505;56.970;40.998;2023-07-31T03:32:55;98999.34;;;14.51;100.00
42859;BME280;28505;56.970;40.998;2023-07-31T03:38:17;99003.16;;;14.50;100.00
42859;BME280;28505;56.970;40.998;2023-07-31T03:43:40;99007.94;;;14.53;100.00
42859;BME280;28505;56.970;40.998;2023-07-31T03:49:02;99007.66;;;14.58;100.00
42859;BME280;28505;56.970;40.998;2023-07-31T03:54:24;99006.88;;;14.58;100.00
42859;BME280;28505;56.970;40.998;2023-07-31T03:59:46;99001.81;;;14.56;100.00
42859;BME280;28505;56.970;40.998;2023-07-31T04:05:08;99005.97;;;14.66;100.00
42859;BME280;28505;56.970;40.998;2023-07-31T04:10:31;99004.34;;;14.77;100.00
42859;BME280;28505;56.970;40.998;2023-07-31T04:15:55;99019.34;;;14.87;100.00
42859;BME280;28505;56.970;40.998;2023-07-31T04:21:17;99021.28;;;14.86;100.00
42859;BME280;28505;56.970;40.998;2023-07-31T04:26:39;99031.59;;;14.81;100.00
42859;BME280;28505;56.970;40.998;2023-07-31T04:32:01;99037.56;;;14.86;100.00
42859;BME280;28505;56.970;40.998;2023-07-31T04:37:24;99042.34;;;14.77;100.00
42859;BME280;28505;56.970;40.998;2023-07-31T04:42:46;99050.25;;;14.82;100.00
42859;BME280;28505;56.970;40.998;2023-07-31T04:48:08;99044.56;;;14.87;100.00
42859;BME280;28505;56.970;40.998;2023-07-31T04:53:30;99050.25;;;14.82;100.00
42859;BME280;28505;56.970;40.998;2023-07-31T04:58:52;99050.56;;;14.81;100.00
42859;BME280;28505;56.970;40.998;2023-07-31T05:04:15;99049.69;;;14.77;100.00
42859;BME280;28505;56.970;40.998;2023-07-31T05:09:37;99050.81;;;14.75;100.00
42859;BME280;28505;56.970;40.998;2023-07-31T05:14:59;99063.59;;;14.75;100.00
42859;BME280;28505;56.970;40.998;2023-07-31T05:20:23;99071.50;;;14.80;100.00
42859;BME280;28505;56.970;40.998;2023-07-31T05:25:45;99077.34;;;14.94;100.00
42859;BME280;28505;56.970;40.998;2023-07-31T05:31:07;99078.50;;;14.81;100.00
42859;BME280;28505;56.970;40.998;2023-07-31T05:36:29;99085.22;;;14.71;100.00
42859;BME280;28505;56.970;40.998;2023-07-31T05:41:52;99082.50;;;14.71;100.00
42859;BME280;28505;56.970;40.998;2023-07-31T05:47:14;99083.50;;;14.67;100.00
42859;BME280;28505;56.970;40.998;2023-07-31T05:52:36;99089.13;;;14.74;100.00
42859;BME280;28505;56.970;40.998;2023-07-31T05:57:58;99089.47;;;14.85;100.00
42859;BME280;28505;56.970;40.998;2023-07-31T06:03:21;99088.91;;;14.91;100.00
42859;BME280;28505;56.970;40.998;2023-07-31T06:08:43;99094.88;;;15.25;100.00
42859;BME280;28505;56.970;40.998;2023-07-31T06:14:05;99082.38;;;15.36;100.00
42859;BME280;28505;56.970;40.998;2023-07-31T06:19:27;99087.25;;;15.59;100.00
42859;BME280;28505;56.970;40.998;2023-07-31T06:24:49;99086.47;;;15.58;100.00
42859;BME280;28505;56.970;40.998;2023-07-31T06:30:11;99089.38;;;15.65;100.00
42859;BME280;28505;56.970;40.998;2023-07-31T06:35:34;99087.06;;;15.96;100.00
42859;BME280;28505;56.970;40.998;2023-07-31T06:40:56;99101.56;;;16.00;100.00
42859;BME280;28505;56.970;40.998;2023-07-31T06:46:18;99099.63;;;16.32;100.00
42859;BME280;28505;56.970;40.998;2023-07-31T06:51:41;99098.56;;;16.36;100.00
42859;BME280;28505;56.970;40.998;2023-07-31T06:57:03;99102.44;;;16.20;100.00
42859;BME280;28505;56.970;40.998;2023-07-31T07:02:25;99105.47;;;16.81;100.00
42859;BME280;28505;56.970;40.998;2023-07-31T07:07:50;99108.22;;;17.01;100.00
42859;BME280;28505;56.970;40.998;2023-07-31T07:13:15;99111.56;;;17.52;100.00
42859;BME280;28505;56.970;40.998;2023-07-31T07:18:40;99107.00;;;17.57;100.00
42859;BME280;28505;56.970;40.998;2023-07-31T07:24:22;99114.94;;;18.57;100.00
42859;BME280;28505;56.970;40.998;2023-07-31T07:29:46;99120.56;;;19.92;100.00
42859;BME280;28505;56.970;40.998;2023-07-31T07:35:08;99112.97;;;18.81;100.00
42859;BME280;28505;56.970;40.998;2023-07-31T07:40:32;99118.66;;;19.29;100.00
42859;BME280;28505;56.970;40.998;2023-07-31T07:45:55;99116.31;;;18.70;100.00
42859;BME280;28505;56.970;40.998;2023-07-31T07:51:20;99117.81;;;20.88;100.00
42859;BME280;28505;56.970;40.998;2023-07-31T07:56:42;99114.47;;;21.27;100.00
42859;BME280;28505;56.970;40.998;2023-07-31T08:02:05;99122.94;;;20.93;100.00
42859;BME280;28505;56.970;40.998;2023-07-31T08:07:30;99118.63;;;22.33;100.00
42859;BME280;28505;56.970;40.998;2023-07-31T08:12:52;99124.16;;;20.44;100.00
42859;BME280;28505;56.970;40.998;2023-07-31T08:18:15;99116.34;;;21.12;100.00
42859;BME280;28505;56.970;40.998;2023-07-31T08:23:41;99127.00;;;21.24;100.00
42859;BME280;28505;56.970;40.998;2023-07-31T08:29:03;99124.22;;;21.14;100.00
42859;BME280;28505;56.970;40.998;2023-07-31T08:34:25;99132.78;;;21.12;100.00
42859;BME280;28505;56.970;40.998;2023-07-31T08:39:48;99137.03;;;20.95;100.00
42859;BME280;28505;56.970;40.998;2023-07-31T08:45:15;99122.50;;;21.79;100.00
42859;BME280;28505;56.970;40.998;2023-07-31T08:50:39;99120.94;;;21.81;100.00
42859;BME280;28505;56.970;40.998;2023-07-31T08:56:04;99125.59;;;21.56;100.00
42859;BME280;28505;56.970;40.998;2023-07-31T09:01:30;99116.56;;;21.55;100.00
42859;BME280;28505;56.970;40.998;2023-07-31T09:06:57;99128.53;;;21.22;100.00
42859;BME280;28505;56.970;40.998;2023-07-31T09:12:21;99130.22;;;20.68;100.00
42859;BME280;28505;56.970;40.998;2023-07-31T09:17:43;99142.13;;;20.42;100.00
42859;BME280;28505;56.970;40.998;2023-07-31T09:23:14;99143.06;;;21.22;100.00
42859;BME280;28505;56.970;40.998;2023-07-31T09:28:38;99137.00;;;21.86;100.00
42859;BME280;28505;56.970;40.998;2023-07-31T09:34:01;99139.41;;;21.98;100.00
42859;BME280;28505;56.970;40.998;2023-07-31T09:39:24;99153.16;;;22.59;100.00
42859;BME280;28505;56.970;40.998;2023-07-31T09:44:46;99143.69;;;22.00;100.00
42859;BME280;28505;56.970;40.998;2023-07-31T09:50:08;99144.47;;;21.96;100.00
42859;BME280;28505;56.970;40.998;2023-07-31T09:55:31;99148.41;;;21.95;100.00
42859;BME280;28505;56.970;40.998;2023-07-31T10:00:53;99139.00;;;22.97;100.00
42859;BME280;28505;56.970;40.998;2023-07-31T10:06:16;99141.00;;;22.46;100.00
42859;BME280;28505;56.970;40.998;2023-07-31T10:11:45;99144.63;;;21.23;100.00
42859;BME280;28505;56.970;40.998;2023-07-31T10:17:12;99149.94;;;21.75;100.00
42859;BME280;28505;56.970;40.998;2023-07-31T10:22:35;99146.00;;;21.72;100.00
42859;BME280;28505;56.970;40.998;2023-07-31T10:27:57;99163.34;;;22.66;100.00
42859;BME280;28505;56.970;40.998;2023-07-31T10:33:20;99145.72;;;22.42;100.00
42859;BME280;28505;56.970;40.998;2023-07-31T10:38:42;99151.22;;;22.60;99.34
42859;BME280;28505;56.970;40.998;2023-07-31T10:44:07;99153.97;;;22.38;100.00
42859;BME280;28505;56.970;40.998;2023-07-31T10:49:29;99146.06;;;22.12;100.00
42859;BME280;28505;56.970;40.998;2023-07-31T10:55:32;99166.97;;;21.29;100.00
42859;BME280;28505;56.970;40.998;2023-07-31T11:00:56;99163.97;;;20.86;100.00
42859;BME280;28505;56.970;40.998;2023-07-31T11:06:19;99169.44;;;20.86;100.00
42859;BME280;28505;56.970;40.998;2023-07-31T11:11:41;99176.19;;;21.83;100.00
42859;BME280;28505;56.970;40.998;2023-07-31T11:17:07;99166.13;;;22.52;100.00
42859;BME280;28505;56.970;40.998;2023-07-31T11:22:30;99164.88;;;22.10;100.00
42859;BME280;28505;56.970;40.998;2023-07-31T11:27:52;99164.41;;;21.72;100.00
42859;BME280;28505;56.970;40.998;2023-07-31T11:33:15;99158.66;;;22.74;85.89
42859;BME280;28505;56.970;40.998;2023-07-31T11:38:37;99154.22;;;23.33;90.86
42859;BME280;28505;56.970;40.998;2023-07-31T11:44:00;99163.38;;;22.77;92.82
42859;BME280;28505;56.970;40.998;2023-07-31T11:49:39;99164.00;;;21.66;100.00
42859;BME280;28505;56.970;40.998;2023-07-31T11:55:02;99155.09;;;23.05;93.48
42859;BME280;28505;56.970;40.998;2023-07-31T12:00:25;99156.84;;;23.69;87.63
42859;BME280;28505;56.970;40.998;2023-07-31T12:05:48;99159.19;;;23.74;78.98
42859;BME280;28505;56.970;40.998;2023-07-31T12:11:11;99155.41;;;23.32;72.41
42859;BME280;28505;56.970;40.998;2023-07-31T12:16:33;99171.97;;;22.82;74.90
42859;BME280;28505;56.970;40.998;2023-07-31T12:21:55;99167.28;;;22.86;71.14
42859;BME280;28505;56.970;40.998;2023-07-31T12:27:18;99178.69;;;22.38;70.35
42859;BME280;28505;56.970;40.998;2023-07-31T12:32:40;99170.44;;;22.20;87.77
42859;BME280;28505;56.970;40.998;2023-07-31T12:38:03;99185.28;;;22.09;84.05
42859;BME280;28505;56.970;40.998;2023-07-31T12:43:25;99190.06;;;22.51;78.82
42859;BME280;28505;56.970;40.998;2023-07-31T12:48:47;99184.56;;;22.40;85.40
42859;BME280;28505;56.970;40.998;2023-07-31T12:54:09;99187.69;;;22.28;77.43
42859;BME280;28505;56.970;40.998;2023-07-31T12:59:31;99190.47;;;22.60;88.65
42859;BME280;28505;56.970;40.998;2023-07-31T13:04:53;99186.41;;;21.93;90.52
42859;BME280;28505;56.970;40.998;2023-07-31T13:10:16;99185.16;;;21.62;94.46
42859;BME280;28505;56.970;40.998;2023-07-31T13:15:40;99189.81;;;21.55;95.91
42859;BME280;28505;56.970;40.998;2023-07-31T13:21:02;99203.97;;;21.67;100.00
42859;BME280;28505;56.970;40.998;2023-07-31T13:26:24;99198.69;;;22.93;99.47
42859;BME280;28505;56.970;40.998;2023-07-31T13:31:46;99182.91;;;22.04;87.52
42859;BME280;28505;56.970;40.998;2023-07-31T13:37:08;99193.06;;;21.78;100.00
42859;BME280;28505;56.970;40.998;2023-07-31T13:42:31;99195.28;;;21.47;100.00
42859;BME280;28505;56.970;40.998;2023-07-31T13:47:53;99199.72;;;21.08;100.00
42859;BME280;28505;56.970;40.998;2023-07-31T13:53:15;99203.97;;;20.98;100.00
42859;BME280;28505;56.970;40.998;2023-07-31T13:58:37;99205.91;;;20.94;100.00
42859;BME280;28505;56.970;40.998;2023-07-31T14:03:59;99198.63;;;21.16;100.00
42859;BME280;28505;56.970;40.998;2023-07-31T14:09:23;99194.47;;;21.40;100.00
42859;BME280;28505;56.970;40.998;2023-07-31T14:14:46;99183.38;;;22.38;100.00
42859;BME280;28505;56.970;40.998;2023-07-31T14:20:09;99182.13;;;22.10;100.00
42859;BME280;28505;56.970;40.998;2023-07-31T14:25:32;99180.19;;;22.11;92.01
42859;BME280;28505;56.970;40.998;2023-07-31T14:30:54;99186.91;;;22.49;97.04
42859;BME280;28505;56.970;40.998;2023-07-31T14:36:16;99171.22;;;22.28;100.00
42859;BME280;28505;56.970;40.998;2023-07-31T14:41:38;99195.94;;;22.35;94.13
42859;BME280;28505;56.970;40.998;2023-07-31T14:47:00;99197.50;;;22.58;100.00
42859;BME280;28505;56.970;40.998;2023-07-31T14:52:23;99188.09;;;22.37;88.71
42859;BME280;28505;56.970;40.998;2023-07-31T14:57:45;99203.41;;;22.56;100.00
42859;BME280;28505;56.970;40.998;2023-07-31T15:03:08;99214.38;;;22.85;98.63
42859;BME280;28505;56.970;40.998;2023-07-31T15:08:30;99217.16;;;22.60;100.00
42859;BME280;28505;56.970;40.998;2023-07-31T15:13:53;99221.13;;;21.50;100.00
42859;BME280;28505;56.970;40.998;2023-07-31T15:19:15;99229.66;;;22.29;97.27
42859;BME280;28505;56.970;40.998;2023-07-31T15:24:38;99228.47;;;22.30;100.00
42859;BME280;28505;56.970;40.998;2023-07-31T15:30:00;99239.84;;;22.17;100.00
42859;BME280;28505;56.970;40.998;2023-07-31T15:35:24;99237.31;;;21.77;100.00
42859;BME280;28505;56.970;40.998;2023-07-31T15:40:48;99248.69;;;21.09;100.00
42859;BME280;28505;56.970;40.998;2023-07-31T15:46:11;99252.34;;;21.31;100.00
42859;BME280;28505;56.970;40.998;2023-07-31T15:51:34;99246.63;;;20.95;100.00
42859;BME280;28505;56.970;40.998;2023-07-31T15:56:56;99251.75;;;20.15;100.00
42859;BME280;28505;56.970;40.998;2023-07-31T16:02:18;99251.50;;;19.63;100.00
42859;BME280;28505;56.970;40.998;2023-07-31T16:07:41;99252.69;;;19.36;100.00
42859;BME280;28505;56.970;40.998;2023-07-31T16:13:03;99251.97;;;18.89;100.00
42859;BME280;28505;56.970;40.998;2023-07-31T16:19:12;99258.78;;;18.76;100.00
42859;BME280;28505;56.970;40.998;2023-07-31T16:24:34;99258.22;;;18.90;100.00
42859;BME280;28505;56.970;40.998;2023-07-31T16:29:57;99247.13;;;18.56;100.00
42859;BME280;28505;56.970;40.998;2023-07-31T16:35:24;99240.84;;;18.33;100.00
42859;BME280;28505;56.970;40.998;2023-07-31T16:40:47;99252.38;;;18.03;100.00
42859;BME280;28505;56.970;40.998;2023-07-31T16:46:10;99256.41;;;17.90;100.00
42859;BME280;28505;56.970;40.998;2023-07-31T16:51:31;99260.13;;;17.82;100.00
42859;BME280;28505;56.970;40.998;2023-07-31T16:56:53;99255.91;;;17.49;100.00
42859;BME280;28505;56.970;40.998;2023-07-31T17:02:21;99269.41;;;17.26;100.00
42859;BME280;28505;56.970;40.998;2023-07-31T17:07:43;99271.34;;;17.25;100.00
42859;BME280;28505;56.970;40.998;2023-07-31T17:13:05;99274.09;;;17.09;100.00
42859;BME280;28505;56.970;40.998;2023-07-31T17:18:27;99264.19;;;16.85;100.00
42859;BME280;28505;56.970;40.998;2023-07-31T17:23:49;99282.16;;;16.58;100.00
42859;BME280;28505;56.970;40.998;2023-07-31T17:29:14;99278.44;;;16.35;100.00
42859;BME280;28505;56.970;40.998;2023-07-31T17:34:38;99278.16;;;16.24;100.00
42859;BME280;28505;56.970;40.998;2023-07-31T17:40:01;99278.00;;;16.05;100.00
42859;BME280;28505;56.970;40.998;2023-07-31T17:45:24;99273.41;;;15.93;100.00
42859;BME280;28505;56.970;40.998;2023-07-31T17:50:52;99283.06;;;15.90;100.00
42859;BME280;28505;56.970;40.998;2023-07-31T17:56:14;99278.91;;;15.68;100.00
42859;BME280;28505;56.970;40.998;2023-07-31T18:01:36;99277.34;;;15.43;100.00
42859;BME280;28505;56.970;40.998;2023-07-31T18:06:58;99286.53;;;15.38;100.00
42859;BME280;28505;56.970;40.998;2023-07-31T18:12:20;99292.84;;;15.42;100.00
42859;BME280;28505;56.970;40.998;2023-07-31T18:17:43;99290.28;;;15.34;100.00
42859;BME280;28505;56.970;40.998;2023-07-31T18:23:05;99297.63;;;15.33;100.00
42859;BME280;28505;56.970;40.998;2023-07-31T18:28:30;99307.81;;;15.24;100.00
42859;BME280;28505;56.970;40.998;2023-07-31T18:33:52;99300.44;;;15.00;100.00
42859;BME280;28505;56.970;40.998;2023-07-31T18:39:14;99303.53;;;15.11;100.00
42859;BME280;28505;56.970;40.998;2023-07-31T18:44:37;99321.06;;;15.01;100.00
42859;BME280;28505;56.970;40.998;2023-07-31T18:49:59;99319.78;;;14.86;100.00
42859;BME280;28505;56.970;40.998;2023-07-31T18:55:23;99326.97;;;14.70;100.00
42859;BME280;28505;56.970;40.998;2023-07-31T19:00:47;99329.41;;;14.50;100.00
42859;BME280;28505;56.970;40.998;2023-07-31T19:06:09;99329.22;;;14.68;100.00
42859;BME280;28505;56.970;40.998;2023-07-31T19:11:31;99339.41;;;14.38;100.00
42859;BME280;28505;56.970;40.998;2023-07-31T19:16:53;99332.06;;;14.38;100.00
42859;BME280;28505;56.970;40.998;2023-07-31T19:22:18;99331.44;;;14.20;100.00
42859;BME280;28505;56.970;40.998;2023-07-31T19:27:40;99337.44;;;14.26;100.00
42859;BME280;28505;56.970;40.998;2023-07-31T19:33:04;99347.31;;;14.10;100.00
42859;BME280;28505;56.970;40.998;2023-07-31T19:38:27;99357.88;;;14.23;100.00
42859;BME280;28505;56.970;40.998;2023-07-31T19:43:49;99356.75;;;14.24;100.00
42859;BME280;28505;56.970;40.998;2023-07-31T19:49:11;99358.25;;;13.92;100.00
42859;BME280;28505;56.970;40.998;2023-07-31T19:54:34;99357.38;;;13.79;100.00
42859;BME280;28505;56.970;40.998;2023-07-31T19:59:57;99367.09;;;13.59;100.00
42859;BME280;28505;56.970;40.998;2023-07-31T20:05:30;99379.41;;;13.48;100.00
42859;BME280;28505;56.970;40.998;2023-07-31T20:10:52;99371.75;;;13.50;100.00
42859;BME280;28505;56.970;40.998;2023-07-31T20:16:16;99369.63;;;13.26;100.00
42859;BME280;28505;56.970;40.998;2023-07-31T20:21:40;99365.09;;;13.48;100.00
42859;BME280;28505;56.970;40.998;2023-07-31T20:27:02;99376.94;;;13.64;100.00
42859;BME280;28505;56.970;40.998;2023-07-31T20:32:24;99379.16;;;13.32;100.00
42859;BME280;28505;56.970;40.998;2023-07-31T20:37:46;99388.41;;;13.23;100.00
42859;BME280;28505;56.970;40.998;2023-07-31T20:43:09;99381.44;;;13.13;100.00
42859;BME280;28505;56.970;40.998;2023-07-31T20:48:37;99394.47;;;13.28;100.00
42859;BME280;28505;56.970;40.998;2023-07-31T20:54:00;99388.13;;;13.24;100.00
42859;BME280;28505;56.970;40.998;2023-07-31T20:59:22;99388.44;;;13.14;100.00
42859;BME280;28505;56.970;40.998;2023-07-31T21:04:44;99381.47;;;13.04;100.00
42859;BME280;28505;56.970;40.998;2023-07-31T21:10:06;99383.53;;;13.07;100.00
42859;BME280;28505;56.970;40.998;2023-07-31T21:15:29;99379.59;;;12.96;100.00
42859;BME280;28505;56.970;40.998;2023-07-31T21:20:52;99381.88;;;12.77;100.00
42859;BME280;28505;56.970;40.998;2023-07-31T21:26:14;99385.56;;;12.63;100.00
42859;BME280;28505;56.970;40.998;2023-07-31T21:31:36;99387.63;;;12.67;100.00
42859;BME280;28505;56.970;40.998;2023-07-31T21:36:58;99398.41;;;12.84;100.00
42859;BME280;28505;56.970;40.998;2023-07-31T21:42:20;99413.84;;;12.75;100.00
42859;BME280;28505;56.970;40.998;2023-07-31T21:47:42;99409.44;;;12.53;100.00
42859;BME280;28505;56.970;40.998;2023-07-31T21:53:06;99406.41;;;12.37;100.00
42859;BME280;28505;56.970;40.998;2023-07-31T21:58:29;99407.16;;;12.81;100.00
42859;BME280;28505;56.970;40.998;2023-07-31T22:03:51;99406.88;;;12.56;100.00
42859;BME280;28505;56.970;40.998;2023-07-31T22:09:14;99408.94;;;12.42;100.00
42859;BME280;28505;56.970;40.998;2023-07-31T22:14:36;99404.34;;;12.34;100.00
42859;BME280;28505;56.970;40.998;2023-07-31T22:19:58;99410.69;;;12.55;100.00
42859;BME280;28505;56.970;40.998;2023-07-31T22:25:20;99415.00;;;12.56;100.00
42859;BME280;28505;56.970;40.998;2023-07-31T22:30:42;99411.50;;;12.30;100.00
42859;BME280;28505;56.970;40.998;2023-07-31T22:36:04;99415.28;;;12.03;100.00
42859;BME280;28505;56.970;40.998;2023-07-31T22:41:26;99422.13;;;12.00;100.00
42859;BME280;28505;56.970;40.998;2023-07-31T22:46:48;99416.56;;;12.23;100.00
42859;BME280;28505;56.970;40.998;2023-07-31T22:52:10;99421.63;;;11.98;100.00
42859;BME280;28505;56.970;40.998;2023-07-31T22:57:32;99436.59;;;12.22;100.00
42859;BME280;28505;56.970;40.998;2023-07-31T23:02:54;99425.25;;;11.85;100.00
42859;BME280;28505;56.970;40.998;2023-07-31T23:08:17;99426.38;;;11.92;100.00
42859;BME280;28505;56.970;40.998;2023-07-31T23:13:39;99422.75;;;11.97;100.00
42859;BME280;28505;56.970;40.998;2023-07-31T23:19:01;99431.13;;;11.87;100.00
42859;BME280;28505;56.970;40.998;2023-07-31T23:24:23;99410.13;;;11.75;100.00
42859;BME280;28505;56.970;40.998;2023-07-31T23:29:45;99419.25;;;11.88;100.00
42859;BME280;28505;56.970;40.998;2023-07-31T23:35:07;99422.19;;;11.78;100.00
42859;BME280;28505;56.970;40.998;2023-07-31T23:40:30;99420.59;;;11.77;100.00
42859;BME280;28505;56.970;40.998;2023-07-31T23:45:52;99415.69;;;11.79;100.00
42859;BME280;28505;56.970;40.998;2023-07-31T23:51:14;99418.13;;;11.89;100.00
42859;BME280;28505;56.970;40.998;2023-07-31T23:56:36;99415.50;;;11.66;100.00
